Terminal Aerodrome Forecast
Issued by NWS Atlanta, GA

Home | Current Version | Previous Version | Text Only | Print | Product List | Glossary On
Versions: 1 2 3 4 5 6 7 8 9 10 11 12 13 14 15 16 17 18 19 20 21 22 23 24
000
FTUS42 KFFC 170900 AAA
TAFMCN
TAF AMD
KMCN 170930Z 1710/1806 08006KT P6SM FEW040
     FM171200 06010KT P6SM SCT035 BKN250
     FM171500 08010G20KT P6SM SCT035 BKN250
     FM172000 07010G18KT P6SM BKN040
     FM180000 07009KT P6SM BKN035=

USA.gov is the U.S. government's official web portal to all federal, state and local government web resources and services.